Time;durP1;ratioP1;P1;durP2;ratioP2;P2;SDS_P1;SDS_P2;PMS_P1;PMS_P2;Temp;Humidity;BMP_temperature;BMP_pressure;BME280_temperature;BME280_humidity;BME280_pressure;Samples;Min_cycle;Max_cycle;Signal;HPM_P1;HPM_P2
2023/03/06 00:01:21;;;;;;;11.65;10.55;;;3.00;99.90;;;;;;4895874;29;20435;-72
2023/03/06 00:03:48;;;;;;;11.20;10.13;;;2.90;99.90;;;;;;4893566;29;20431;-72
2023/03/06 00:06:15;;;;;;;10.83;9.73;;;2.80;99.90;;;;;;4892231;29;20822;-72
2023/03/06 00:08:43;;;;;;;11.70;10.50;;;2.80;99.90;;;;;;4876085;29;20442;-72
2023/03/06 00:11:14;;;;;;;11.95;10.77;;;2.80;99.90;;;;;;4878924;29;20491;-73
2023/03/06 00:13:41;;;;;;;12.35;11.15;;;2.80;99.90;;;;;;4910291;23;20539;-69
2023/03/06 00:16:08;;;;;;;12.70;11.50;;;2.80;99.90;;;;;;4887037;29;20789;-69
2023/03/06 00:18:35;;;;;;;13.73;12.32;;;2.80;99.90;;;;;;4894139;29;20426;-68
2023/03/06 00:21:01;;;;;;;11.93;10.73;;;2.80;99.90;;;;;;4882680;29;20462;-69
2023/03/06 00:23:28;;;;;;;11.52;10.43;;;2.80;99.90;;;;;;4876869;29;20438;-68
2023/03/06 00:25:56;;;;;;;13.10;11.80;;;2.70;99.90;;;;;;4886001;29;20434;-69
2023/03/06 00:28:23;;;;;;;12.23;11.03;;;2.70;99.90;;;;;;4893677;29;20472;-68
2023/03/06 00:30:50;;;;;;;12.25;11.05;;;2.70;99.90;;;;;;4891811;29;20477;-67
2023/03/06 00:33:17;;;;;;;12.93;11.63;;;2.70;99.90;;;;;;4881641;29;20445;-67
2023/03/06 00:35:44;;;;;;;13.38;11.98;;;2.70;99.90;;;;;;4885748;29;20825;-68
2023/03/06 00:38:12;;;;;;;14.27;12.88;;;2.70;99.90;;;;;;4882190;29;20444;-67
2023/03/06 00:40:38;;;;;;;13.68;12.27;;;2.70;99.90;;;;;;4886392;29;20431;-68
2023/03/06 00:43:07;;;;;;;15.07;12.10;;;2.70;99.90;;;;;;4892681;29;20778;-68
2023/03/06 00:45:33;;;;;;;14.13;12.60;;;2.70;99.90;;;;;;4894313;29;20445;-68
2023/03/06 00:48:00;;;;;;;13.27;11.88;;;2.60;99.90;;;;;;4894673;29;20427;-68
2023/03/06 00:50:27;;;;;;;13.70;12.30;;;2.60;99.90;;;;;;4872701;29;20473;-68
2023/03/06 00:52:54;;;;;;;13.30;11.90;;;2.60;99.90;;;;;;4877683;29;20802;-68
2023/03/06 00:55:21;;;;;;;13.25;11.85;;;2.60;99.90;;;;;;4895065;29;20434;-67
2023/03/06 00:57:47;;;;;;;13.82;12.43;;;2.60;99.90;;;;;;4888987;29;20440;-71
2023/03/06 01:00:16;;;;;;;13.18;11.77;;;2.60;99.90;;;;;;4889805;29;20422;-68
2023/03/06 01:02:43;;;;;;;13.70;12.30;;;2.60;99.90;;;;;;4894219;29;20854;-67
2023/03/06 01:05:12;;;;;;;12.02;10.82;;;2.60;99.90;;;;;;4875416;29;20569;-67
2023/03/06 01:07:39;;;;;;;14.15;12.10;;;2.60;99.90;;;;;;4871397;29;20429;-68
2023/03/06 01:10:07;;;;;;;14.15;12.45;;;2.60;99.90;;;;;;4901165;29;20450;-71
2023/03/06 01:12:34;;;;;;;13.88;12.48;;;2.60;99.90;;;;;;4895073;29;20438;-68
2023/03/06 01:15:01;;;;;;;13.48;12.13;;;2.60;99.90;;;;;;4906866;29;20454;-68
2023/03/06 01:17:29;;;;;;;13.98;12.68;;;2.60;99.90;;;;;;4904891;29;20439;-68
2023/03/06 01:19:57;;;;;;;13.70;12.15;;;2.60;99.90;;;;;;4886641;29;20466;-67
2023/03/06 01:22:24;;;;;;;14.70;13.10;;;2.60;99.90;;;;;;4901388;29;20892;-68
2023/03/06 01:24:50;;;;;;;14.98;13.45;;;2.60;99.90;;;;;;4881719;29;20579;-69
2023/03/06 01:27:17;;;;;;;15.70;14.10;;;2.60;99.90;;;;;;4892353;29;20750;-68
2023/03/06 01:29:44;;;;;;;16.20;14.50;;;2.60;99.90;;;;;;4892949;29;20442;-68
2023/03/06 01:32:11;;;;;;;15.40;13.80;;;2.60;99.90;;;;;;4885641;29;20448;-68
2023/03/06 01:34:39;;;;;;;15.98;14.27;;;2.60;99.90;;;;;;4880079;29;21041;-68
2023/03/06 01:37:05;;;;;;;15.82;14.25;;;2.60;99.90;;;;;;4882149;29;20717;-71
2023/03/06 01:39:32;;;;;;;16.13;14.52;;;2.60;99.90;;;;;;4870680;29;21080;-68
2023/03/06 01:41:59;;;;;;;16.20;14.60;;;2.60;99.90;;;;;;4882447;29;20433;-72
2023/03/06 01:44:26;;;;;;;16.25;14.55;;;2.70;99.90;;;;;;4894457;29;20430;-69
2023/03/06 01:46:52;;;;;;;16.17;14.48;;;2.60;99.90;;;;;;4892116;29;20466;-69
2023/03/06 01:49:22;;;;;;;17.20;15.50;;;2.70;99.90;;;;;;4876049;29;20534;-69
2023/03/06 01:51:54;;;;;;;17.20;15.40;;;2.70;99.90;;;;;;4893000;29;20431;-68
2023/03/06 01:54:24;;;;;;;16.90;15.20;;;2.60;99.90;;;;;;4892060;29;20462;-68
2023/03/06 01:56:54;;;;;;;19.08;17.10;;;2.70;99.90;;;;;;4892823;29;20836;-68
2023/03/06 01:59:21;;;;;;;18.57;16.67;;;2.70;99.90;;;;;;4876008;29;20430;-69
2023/03/06 02:01:49;;;;;;;19.13;17.02;;;2.70;99.90;;;;;;4884519;29;20444;-68
2023/03/06 02:04:17;;;;;;;20.08;18.08;;;2.70;99.90;;;;;;4879835;29;20439;-69
2023/03/06 02:06:45;;;;;;;19.90;18.00;;;2.70;99.90;;;;;;4885873;29;20878;-71
2023/03/06 02:09:14;;;;;;;19.73;17.83;;;2.70;99.90;;;;;;4905971;29;20453;-69
2023/03/06 02:11:42;;;;;;;20.33;18.05;;;2.70;99.90;;;;;;4902305;29;20886;-68
2023/03/06 02:14:11;;;;;;;20.30;18.20;;;2.70;99.90;;;;;;4897339;29;20494;-69
2023/03/06 02:16:38;;;;;;;20.93;18.70;;;2.70;99.90;;;;;;4881081;29;20522;-69
2023/03/06 02:19:08;;;;;;;22.27;19.98;;;2.70;99.90;;;;;;4878393;29;20426;-71
2023/03/06 02:21:37;;;;;;;22.98;20.60;;;2.70;99.90;;;;;;4890350;29;20454;-67
2023/03/06 02:24:17;;;;;;;23.35;20.70;;;2.60;99.90;;;;;;4874980;29;20432;-69
2023/03/06 02:26:46;;;;;;;25.10;22.10;;;2.60;99.90;;;;;;4866090;29;20740;-69
2023/03/06 02:29:17;;;;;;;25.15;22.45;;;2.60;99.90;;;;;;4892754;29;20449;-68
2023/03/06 02:31:44;;;;;;;27.85;22.80;;;2.60;99.90;;;;;;4873438;29;20445;-68
2023/03/06 02:34:44;;;;;;;26.42;22.98;;;2.60;99.90;;;;;;4881231;29;20434;-68
2023/03/06 02:37:11;;;;;;;27.80;23.27;;;2.60;99.90;;;;;;4876614;29;20491;-67
2023/03/06 02:39:42;;;;;;;28.50;24.20;;;2.50;99.90;;;;;;4893023;29;20430;-68
2023/03/06 02:42:17;;;;;;;29.85;24.67;;;2.40;99.90;;;;;;4898732;29;20445;-67
2023/03/06 02:44:43;;;;;;;29.60;25.33;;;2.40;99.90;;;;;;4900722;29;20448;-67
2023/03/06 02:47:10;;;;;;;29.77;25.13;;;2.40;99.90;;;;;;4890926;29;20452;-68
2023/03/06 02:49:37;;;;;;;31.23;26.30;;;2.40;99.90;;;;;;4889504;29;20451;-68
2023/03/06 02:52:04;;;;;;;28.40;25.23;;;2.40;99.90;;;;;;4897517;29;20901;-66
2023/03/06 02:54:31;;;;;;;30.40;25.90;;;2.50;99.90;;;;;;4887175;29;20446;-68
2023/03/06 02:56:58;;;;;;;29.45;25.02;;;2.40;99.90;;;;;;4874519;29;20710;-70
2023/03/06 02:59:26;;;;;;;31.13;26.38;;;2.40;99.90;;;;;;4874666;29;20434;-68
2023/03/06 03:01:53;;;;;;;30.13;25.73;;;2.40;99.90;;;;;;4866059;29;20919;-69
2023/03/06 03:04:20;;;;;;;31.50;26.10;;;2.40;99.90;;;;;;4878038;29;20434;-69
2023/03/06 03:06:47;;;;;;;32.63;26.30;;;2.40;99.90;;;;;;4883121;29;20446;-69
2023/03/06 03:09:14;;;;;;;30.02;26.60;;;2.40;99.90;;;;;;4879738;29;20495;-66
2023/03/06 03:11:40;;;;;;;30.05;25.30;;;2.40;99.90;;;;;;4881778;29;20436;-68
2023/03/06 03:14:07;;;;;;;29.60;25.60;;;2.40;99.90;;;;;;4884932;29;20435;-67
2023/03/06 03:16:35;;;;;;;30.23;26.05;;;2.40;99.90;;;;;;4897090;29;20432;-66
2023/03/06 03:19:02;;;;;;;30.77;25.57;;;2.50;99.90;;;;;;4891346;29;20486;-70
2023/03/06 03:21:29;;;;;;;28.60;25.50;;;2.40;99.90;;;;;;4896382;29;20750;-67
2023/03/06 03:23:55;;;;;;;31.30;25.30;;;2.50;99.90;;;;;;4888921;29;20432;-69
2023/03/06 03:26:23;;;;;;;28.10;25.10;;;2.50;99.90;;;;;;4876251;29;20450;-69
2023/03/06 03:28:49;;;;;;;28.73;24.38;;;2.50;99.90;;;;;;4886872;29;20512;-69
2023/03/06 03:31:16;;;;;;;29.70;25.52;;;2.50;99.90;;;;;;4891555;29;20447;-68
2023/03/06 03:33:44;;;;;;;28.90;25.63;;;2.50;99.90;;;;;;4877345;29;20459;-69
2023/03/06 03:36:11;;;;;;;30.27;25.38;;;2.50;99.90;;;;;;4885609;29;20445;-69
2023/03/06 03:38:38;;;;;;;30.15;26.10;;;2.60;99.90;;;;;;4906717;29;20437;-68
2023/03/06 03:41:05;;;;;;;29.40;25.90;;;2.50;99.90;;;;;;4908310;29;20419;-67
2023/03/06 03:43:32;;;;;;;32.28;26.35;;;2.60;99.90;;;;;;4891285;29;20439;-69
2023/03/06 03:45:59;;;;;;;30.40;26.35;;;2.60;99.90;;;;;;4903013;29;20457;-67
2023/03/06 03:48:26;;;;;;;29.73;26.15;;;2.60;99.90;;;;;;4878219;29;20443;-69
2023/03/06 03:50:54;;;;;;;28.83;25.73;;;2.60;99.90;;;;;;4892988;29;20455;-68
2023/03/06 03:53:20;;;;;;;28.85;25.63;;;2.60;99.90;;;;;;4898507;29;20434;-68
2023/03/06 03:55:48;;;;;;;32.10;26.35;;;2.60;99.90;;;;;;4897537;29;20913;-69
2023/03/06 03:58:15;;;;;;;31.45;27.08;;;2.60;99.90;;;;;;4883804;29;20946;-68
2023/03/06 04:00:42;;;;;;;30.20;26.90;;;2.60;99.90;;;;;;4877319;29;21021;-68
2023/03/06 04:03:09;;;;;;;29.63;26.20;;;2.60;99.90;;;;;;4880740;29;20444;-70
2023/03/06 04:05:35;;;;;;;31.50;26.33;;;2.60;99.90;;;;;;4881475;29;20442;-68
2023/03/06 04:08:04;;;;;;;31.38;27.73;;;2.60;99.90;;;;;;4907587;29;20434;-67
2023/03/06 04:10:31;;;;;;;29.63;25.65;;;2.60;99.90;;;;;;4907197;29;20473;-66
2023/03/06 04:12:58;;;;;;;29.17;24.90;;;2.60;99.90;;;;;;4907189;29;20427;-69
2023/03/06 04:15:25;;;;;;;30.20;26.67;;;2.60;99.90;;;;;;4892669;29;20442;-68
2023/03/06 04:17:52;;;;;;;27.77;24.58;;;2.60;99.90;;;;;;4875738;29;20758;-70
2023/03/06 04:20:19;;;;;;;29.92;26.05;;;2.70;99.90;;;;;;4884077;29;20465;-69
2023/03/06 04:22:45;;;;;;;29.95;25.60;;;2.70;99.90;;;;;;4893918;29;20427;-69
2023/03/06 04:25:13;;;;;;;28.05;25.05;;;2.70;99.90;;;;;;4886699;29;20437;-69
2023/03/06 04:27:40;;;;;;;29.52;24.55;;;2.70;99.90;;;;;;4886726;29;20436;-69
2023/03/06 04:30:09;;;;;;;29.25;25.45;;;2.70;99.90;;;;;;4892729;29;20446;-69
2023/03/06 04:32:35;;;;;;;28.60;24.63;;;2.70;99.90;;;;;;4874494;29;20899;-69
2023/03/06 04:35:02;;;;;;;26.65;23.58;;;2.70;99.90;;;;;;4892786;29;20431;-69
2023/03/06 04:37:29;;;;;;;27.02;24.13;;;2.70;99.90;;;;;;4894792;29;20435;-72
2023/03/06 04:39:57;;;;;;;28.80;24.70;;;2.70;99.90;;;;;;4881709;29;20437;-69
2023/03/06 04:42:25;;;;;;;27.70;23.77;;;2.70;99.90;;;;;;4881787;29;20805;-68
2023/03/06 04:44:52;;;;;;;29.13;24.15;;;2.70;99.90;;;;;;4886166;29;20441;-70
2023/03/06 04:47:19;;;;;;;28.75;25.08;;;2.60;99.90;;;;;;4875184;29;20594;-69
2023/03/06 04:49:46;;;;;;;28.90;24.50;;;2.60;99.90;;;;;;4886030;29;20486;-68
2023/03/06 04:52:13;;;;;;;29.43;24.57;;;2.60;99.90;;;;;;4896836;29;20443;-67
2023/03/06 04:54:39;;;;;;;27.35;24.45;;;2.70;99.90;;;;;;4898804;29;20435;-69
2023/03/06 04:57:06;;;;;;;31.92;25.50;;;2.60;99.90;;;;;;4896380;29;20430;-69
2023/03/06 04:59:34;;;;;;;29.40;25.58;;;2.70;99.90;;;;;;4879549;29;20461;-69
2023/03/06 05:02:01;;;;;;;30.20;25.10;;;2.70;99.90;;;;;;4873623;29;20440;-69
2023/03/06 05:04:28;;;;;;;29.13;25.75;;;2.70;99.90;;;;;;4894990;29;20431;-70
2023/03/06 05:06:54;;;;;;;29.52;26.33;;;2.70;99.90;;;;;;4894452;29;20443;-68
2023/03/06 05:09:21;;;;;;;32.03;25.83;;;2.70;99.90;;;;;;4907125;29;20430;-69
2023/03/06 05:11:48;;;;;;;27.83;24.05;;;2.70;99.90;;;;;;4887863;29;20923;-69
2023/03/06 05:14:14;;;;;;;28.88;25.75;;;2.70;99.90;;;;;;4893617;29;20450;-69
2023/03/06 05:16:43;;;;;;;30.60;25.20;;;2.70;99.90;;;;;;4885173;29;20793;-69
2023/03/06 05:19:09;;;;;;;30.38;25.38;;;2.70;99.90;;;;;;4876174;29;20469;-68
2023/03/06 05:21:36;;;;;;;29.80;25.20;;;2.70;99.90;;;;;;4898791;29;20418;-67
2023/03/06 05:24:03;;;;;;;29.05;25.25;;;2.70;99.90;;;;;;4868761;29;20430;-69
2023/03/06 05:26:30;;;;;;;32.03;26.35;;;2.70;99.90;;;;;;4886650;29;20446;-69
2023/03/06 05:28:57;;;;;;;29.77;24.25;;;2.70;99.90;;;;;;4880463;29;20448;-74
2023/03/06 05:31:23;;;;;;;30.73;25.07;;;2.70;99.90;;;;;;4865412;29;20558;-68
2023/03/06 05:33:52;;;;;;;29.45;25.45;;;2.70;99.90;;;;;;4881696;29;20457;-69
2023/03/06 05:36:18;;;;;;;27.35;23.58;;;2.70;99.90;;;;;;4875775;29;20450;-69
2023/03/06 05:38:45;;;;;;;30.42;25.42;;;2.70;99.90;;;;;;4878752;29;20436;-69
2023/03/06 05:41:12;;;;;;;28.88;24.90;;;2.70;99.90;;;;;;4889338;29;20427;-69
2023/03/06 05:43:39;;;;;;;32.35;25.98;;;2.70;99.90;;;;;;4872036;29;20766;-69
2023/03/06 05:46:07;;;;;;;29.42;24.95;;;2.70;99.90;;;;;;4878350;29;20726;-68
2023/03/06 05:48:36;;;;;;;28.73;25.20;;;2.70;99.90;;;;;;4891562;29;20431;-68
2023/03/06 05:51:04;;;;;;;28.15;24.92;;;2.70;99.90;;;;;;4893169;29;21119;-69
2023/03/06 05:53:31;;;;;;;26.95;23.92;;;2.70;99.90;;;;;;4896006;29;20522;-67
2023/03/06 05:56:00;;;;;;;28.45;24.95;;;2.70;99.90;;;;;;4891221;29;20424;-68
2023/03/06 05:58:28;;;;;;;30.08;24.48;;;2.80;99.90;;;;;;4865841;29;20456;-67
2023/03/06 06:00:54;;;;;;;29.30;25.83;;;2.70;99.90;;;;;;4870664;29;20604;-68
2023/03/06 06:03:21;;;;;;;28.05;24.38;;;2.80;99.90;;;;;;4881861;29;20577;-74
2023/03/06 06:05:48;;;;;;;26.95;24.05;;;2.80;99.90;;;;;;4878553;29;20448;-73
2023/03/06 06:08:17;;;;;;;28.37;24.93;;;2.80;99.90;;;;;;4866454;29;20461;-67
2023/03/06 06:10:43;;;;;;;27.80;24.77;;;2.80;99.90;;;;;;4866830;29;20438;-74
2023/03/06 06:15:47;;;;;;;28.30;23.60;;;2.80;99.90;;;;;;4864306;29;20448;-69
2023/03/06 06:18:13;;;;;;;28.13;23.73;;;2.80;99.90;;;;;;4865649;29;20432;-70
2023/03/06 06:20:40;;;;;;;27.67;24.10;;;2.80;99.90;;;;;;4873436;29;20915;-69
2023/03/06 06:23:07;;;;;;;30.40;24.77;;;2.80;99.90;;;;;;4873485;29;20432;-71
2023/03/06 06:25:35;;;;;;;27.58;24.33;;;2.80;99.90;;;;;;4856994;29;20449;-68
2023/03/06 06:28:02;;;;;;;27.63;24.50;;;2.80;99.90;;;;;;4840300;29;20435;-70
2023/03/06 06:30:29;;;;;;;29.00;24.80;;;2.80;99.90;;;;;;4843358;29;20442;-70
2023/03/06 06:32:56;;;;;;;27.30;23.77;;;2.80;99.90;;;;;;4854738;29;20442;-69
2023/03/06 06:35:23;;;;;;;30.35;26.52;;;2.80;99.90;;;;;;4862014;29;20829;-67
2023/03/06 06:37:50;;;;;;;31.25;27.58;;;2.80;99.90;;;;;;4853431;29;20703;-70
2023/03/06 06:40:17;;;;;;;28.25;25.25;;;2.80;99.90;;;;;;4851312;29;21014;-67
2023/03/06 06:42:45;;;;;;;29.70;25.80;;;2.80;99.90;;;;;;4857280;29;20450;-68
2023/03/06 06:45:12;;;;;;;29.70;25.33;;;2.80;99.90;;;;;;4848254;29;20883;-68
2023/03/06 06:47:40;;;;;;;28.33;24.80;;;2.90;99.90;;;;;;4860762;29;20455;-70
2023/03/06 06:50:08;;;;;;;29.08;24.58;;;2.80;99.90;;;;;;4859393;29;20513;-66
2023/03/06 06:52:35;;;;;;;29.97;25.47;;;2.90;99.90;;;;;;4855844;29;20454;-69
2023/03/06 06:55:01;;;;;;;28.45;25.35;;;2.90;99.90;;;;;;4848295;29;20446;-68
2023/03/06 06:57:28;;;;;;;27.35;24.45;;;2.80;99.90;;;;;;4855779;29;20446;-67
2023/03/06 06:59:56;;;;;;;26.75;23.63;;;2.90;99.90;;;;;;4864517;29;20901;-70
2023/03/06 07:02:24;;;;;;;27.80;24.80;;;2.90;99.90;;;;;;4860913;29;20424;-68
2023/03/06 07:04:50;;;;;;;26.35;23.00;;;2.90;99.90;;;;;;4876821;29;20451;-67
2023/03/06 07:07:17;;;;;;;25.67;22.48;;;2.90;99.90;;;;;;4866169;29;20827;-66
2023/03/06 07:09:44;;;;;;;27.05;23.45;;;3.00;99.90;;;;;;4859693;29;20434;-68
2023/03/06 07:12:11;;;;;;;26.40;22.80;;;3.00;99.90;;;;;;4853366;29;20469;-69
2023/03/06 07:14:40;;;;;;;25.52;22.65;;;3.00;99.90;;;;;;4851226;29;20519;-69
2023/03/06 07:17:08;;;;;;;25.10;22.40;;;3.00;99.90;;;;;;4859218;29;20508;-66
2023/03/06 07:19:35;;;;;;;25.10;22.10;;;3.00;99.90;;;;;;4856176;29;20498;-67
2023/03/06 07:22:03;;;;;;;25.75;22.95;;;3.00;99.90;;;;;;4870111;29;20464;-68
2023/03/06 07:24:30;;;;;;;27.75;23.85;;;3.10;99.90;;;;;;4859170;29;20445;-68
2023/03/06 07:26:57;;;;;;;25.55;21.90;;;3.10;99.90;;;;;;4849435;29;20921;-67
2023/03/06 07:29:24;;;;;;;25.15;21.85;;;3.10;99.90;;;;;;4854052;29;20465;-67
2023/03/06 07:31:50;;;;;;;24.50;21.85;;;3.20;99.90;;;;;;4847156;29;20450;-69
2023/03/06 07:34:19;;;;;;;24.27;21.60;;;3.20;99.90;;;;;;4854924;29;20441;-67
2023/03/06 07:36:46;;;;;;;23.90;21.30;;;3.20;99.90;;;;;;4856146;29;20533;-69
2023/03/06 07:39:13;;;;;;;23.60;20.13;;;3.30;99.90;;;;;;4851937;29;20441;-71
2023/03/06 07:41:39;;;;;;;24.02;21.33;;;3.30;99.90;;;;;;4860853;29;20909;-71
2023/03/06 07:44:06;;;;;;;23.80;21.20;;;3.30;99.90;;;;;;4859184;29;20438;-70
2023/03/06 07:46:33;;;;;;;25.17;22.48;;;3.30;99.90;;;;;;4861438;29;20636;-72
2023/03/06 07:49:00;;;;;;;24.58;22.08;;;3.30;99.90;;;;;;4853099;29;20454;-71
2023/03/06 07:51:28;;;;;;;26.00;23.20;;;3.30;99.90;;;;;;4849880;29;20452;-70
2023/03/06 07:53:55;;;;;;;23.57;21.07;;;3.40;99.90;;;;;;4847292;29;20959;-71
2023/03/06 07:56:22;;;;;;;25.48;22.77;;;3.40;99.90;;;;;;4849071;29;20802;-71
2023/03/06 07:58:48;;;;;;;26.02;23.23;;;3.40;99.90;;;;;;4854520;29;20450;-70
2023/03/06 08:01:17;;;;;;;25.10;22.50;;;3.40;99.90;;;;;;4856295;29;20535;-69
2023/03/06 08:03:44;;;;;;;26.10;23.30;;;3.50;99.90;;;;;;4855553;29;20927;-71
2023/03/06 08:06:13;;;;;;;25.67;22.17;;;3.60;99.90;;;;;;4851309;29;20457;-69
2023/03/06 08:08:43;;;;;;;23.40;20.90;;;3.60;99.90;;;;;;4862951;29;20726;-71
2023/03/06 08:11:11;;;;;;;25.40;22.60;;;3.70;99.90;;;;;;4853222;29;20964;-68
2023/03/06 08:13:38;;;;;;;23.42;20.80;;;3.70;99.90;;;;;;4848161;29;20443;-69
2023/03/06 08:16:06;;;;;;;26.73;22.40;;;3.70;99.90;;;;;;4855879;29;20445;-68
2023/03/06 08:18:33;;;;;;;24.10;21.45;;;3.80;99.90;;;;;;4855573;29;20458;-70
2023/03/06 08:21:04;;;;;;;28.40;22.73;;;3.70;99.90;;;;;;4852944;29;20453;-70
2023/03/06 08:23:31;;;;;;;25.58;22.55;;;3.80;99.90;;;;;;4854056;29;20450;-68
2023/03/06 08:26:01;;;;;;;25.92;23.13;;;3.80;99.90;;;;;;4845410;29;20785;-69
2023/03/06 08:28:28;;;;;;;24.30;21.70;;;3.90;99.90;;;;;;4858032;29;20535;-69
2023/03/06 08:30:55;;;;;;;24.33;21.52;;;4.00;99.90;;;;;;4857202;29;20823;-72
2023/03/06 08:33:22;;;;;;;29.20;23.70;;;4.10;99.90;;;;;;4846062;29;20446;-68
2023/03/06 08:35:49;;;;;;;25.23;22.55;;;4.20;99.90;;;;;;4853991;29;20450;-71
2023/03/06 08:38:16;;;;;;;26.02;23.23;;;4.30;99.90;;;;;;4849154;29;20438;-70
2023/03/06 08:40:42;;;;;;;25.55;22.95;;;4.40;99.90;;;;;;4846272;29;20462;-72
2023/03/06 08:43:11;;;;;;;25.37;22.77;;;4.40;99.90;;;;;;4848388;29;20434;-70
2023/03/06 08:45:38;;;;;;;27.80;24.60;;;4.50;99.90;;;;;;4849556;29;20800;-70
2023/03/06 08:48:05;;;;;;;25.48;22.77;;;4.50;99.90;;;;;;4850759;29;20481;-71
2023/03/06 08:50:32;;;;;;;28.02;23.05;;;4.50;99.90;;;;;;4848547;29;20954;-70
2023/03/06 08:52:58;;;;;;;24.90;21.13;;;4.30;99.90;;;;;;4846545;29;20436;-71
2023/03/06 08:55:26;;;;;;;25.55;20.35;;;4.20;99.50;;;;;;4851345;29;20952;-70
2023/03/06 08:57:53;;;;;;;23.70;20.02;;;4.10;99.10;;;;;;4850640;29;20454;-71
2023/03/06 09:00:22;;;;;;;23.20;19.30;;;4.10;99.70;;;;;;4856862;29;20441;-70
2023/03/06 09:02:48;;;;;;;19.15;17.25;;;4.10;98.90;;;;;;4842569;29;20438;-70
2023/03/06 09:05:15;;;;;;;18.17;16.23;;;4.10;98.50;;;;;;4842630;29;20851;-70
2023/03/06 09:07:42;;;;;;;19.40;17.40;;;4.10;98.40;;;;;;4847073;29;20449;-70
2023/03/06 09:10:13;;;;;;;20.08;16.90;;;4.20;98.30;;;;;;4850432;29;20483;-73
2023/03/06 09:12:40;;;;;;;19.77;16.50;;;4.20;97.90;;;;;;4854776;29;20454;-69
2023/03/06 09:15:08;;;;;;;18.48;16.58;;;4.30;97.90;;;;;;4844824;29;20461;-71
2023/03/06 09:17:36;;;;;;;17.63;15.85;;;4.30;97.80;;;;;;4859079;29;20469;-72
2023/03/06 09:20:04;;;;;;;18.38;16.02;;;4.30;98.40;;;;;;4852844;29;20453;-70
2023/03/06 09:22:31;;;;;;;17.33;15.52;;;4.30;97.10;;;;;;4849289;29;20473;-70
2023/03/06 09:24:57;;;;;;;17.48;15.77;;;4.30;97.30;;;;;;4845285;29;20459;-70
2023/03/06 09:27:26;;;;;;;17.60;15.82;;;4.30;97.20;;;;;;4853940;29;20462;-70
2023/03/06 09:29:53;;;;;;;18.70;16.05;;;4.30;97.50;;;;;;4854297;29;20477;-72
2023/03/06 09:32:20;;;;;;;19.05;17.05;;;4.40;96.40;;;;;;4849727;29;20483;-73
2023/03/06 09:34:48;;;;;;;17.80;16.10;;;4.50;96.00;;;;;;4848243;29;20428;-70
2023/03/06 09:37:15;;;;;;;17.75;15.85;;;4.60;96.50;;;;;;4853835;29;20433;-72
2023/03/06 09:39:41;;;;;;;17.40;15.55;;;4.80;95.80;;;;;;4849233;29;20904;-70
2023/03/06 09:42:14;;;;;;;18.63;16.77;;;5.00;95.60;;;;;;4848328;29;20915;-70
2023/03/06 09:44:42;;;;;;;17.60;15.90;;;5.20;95.40;;;;;;4853336;29;20939;-71
2023/03/06 09:47:26;;;;;;;18.40;16.40;;;5.40;93.70;;;;;;4852765;29;20445;-71
2023/03/06 09:50:09;;;;;;;19.10;17.20;;;5.50;94.50;;;;;;4859155;29;20779;-71
2023/03/06 09:52:42;;;;;;;28.58;25.88;;;5.60;93.00;;;;;;4846196;29;20451;-71
2023/03/06 09:55:12;;;;;;;20.48;18.40;;;5.60;93.10;;;;;;4843437;29;20445;-70
2023/03/06 09:57:42;;;;;;;19.83;17.73;;;5.40;92.70;;;;;;4851921;29;20571;-70
2023/03/06 10:00:15;;;;;;;19.58;17.67;;;5.20;93.70;;;;;;4852357;29;20953;-70
2023/03/06 10:02:45;;;;;;;19.95;17.85;;;4.90;94.10;;;;;;4854925;29;20963;-71
2023/03/06 10:05:20;;;;;;;20.80;18.60;;;4.90;94.80;;;;;;4846484;29;20901;-71
2023/03/06 10:07:52;;;;;;;20.15;18.10;;;4.90;95.70;;;;;;4852575;29;20467;-70
2023/03/06 10:10:21;;;;;;;19.67;17.67;;;4.80;96.50;;;;;;4852196;29;20432;-69
2023/03/06 10:12:57;;;;;;;20.00;17.80;;;4.90;96.50;;;;;;4851948;29;20449;-73
2023/03/06 10:15:27;;;;;;;21.70;18.45;;;4.90;96.10;;;;;;4848862;29;20447;-70
2023/03/06 10:17:55;;;;;;;19.70;17.60;;;5.20;96.50;;;;;;4850365;29;20953;-72
2023/03/06 10:20:25;;;;;;;18.70;16.90;;;5.30;95.30;;;;;;4855186;29;20448;-71
2023/03/06 10:23:04;;;;;;;18.73;16.83;;;5.40;94.20;;;;;;4853631;29;20529;-71
2023/03/06 10:25:36;;;;;;;20.08;17.88;;;5.60;92.80;;;;;;4847494;29;20450;-69
2023/03/06 10:28:12;;;;;;;17.98;16.17;;;5.70;92.40;;;;;;4846791;29;20446;-69
2023/03/06 10:30:44;;;;;;;19.00;17.00;;;5.60;91.70;;;;;;4854450;29;20450;-71
2023/03/06 10:33:22;;;;;;;17.20;15.50;;;5.80;91.90;;;;;;4843036;29;20453;-69
2023/03/06 10:35:52;;;;;;;16.40;14.35;;;5.90;90.00;;;;;;4854508;29;20899;-70
2023/03/06 10:38:21;;;;;;;16.48;14.68;;;5.70;90.20;;;;;;4864296;29;20432;-69
2023/03/06 10:41:03;;;;;;;16.77;15.27;;;5.60;90.30;;;;;;4856507;29;20453;-71
2023/03/06 10:43:30;;;;;;;16.53;14.90;;;5.50;90.40;;;;;;4849835;29;20449;-69
2023/03/06 10:45:57;;;;;;;17.58;15.77;;;5.30;90.70;;;;;;4844404;29;20514;-71
2023/03/06 10:48:25;;;;;;;16.35;14.75;;;5.30;91.40;;;;;;4868281;29;20888;-70
2023/03/06 10:51:08;;;;;;;16.05;14.45;;;5.30;91.40;;;;;;4848161;29;20799;-70
2023/03/06 10:53:36;;;;;;;14.90;13.50;;;5.20;91.30;;;;;;4842971;29;20442;-72
2023/03/06 10:56:03;;;;;;;15.25;13.65;;;5.20;91.40;;;;;;4856377;29;20508;-71
2023/03/06 10:58:32;;;;;;;16.80;13.93;;;5.20;91.00;;;;;;4848104;29;20455;-70
2023/03/06 11:01:05;;;;;;;15.48;13.88;;;5.20;91.40;;;;;;4842728;29;20898;-71
2023/03/06 11:03:33;;;;;;;17.13;15.32;;;5.20;91.60;;;;;;4858149;29;20870;-68
2023/03/06 11:06:10;;;;;;;16.13;14.52;;;5.30;91.50;;;;;;4849964;29;20464;-70
2023/03/06 11:08:37;;;;;;;16.52;14.82;;;5.20;91.60;;;;;;4854418;29;20746;-70
2023/03/06 11:11:06;;;;;;;17.60;15.90;;;5.00;94.50;;;;;;4851059;29;20441;-70
2023/03/06 11:13:35;;;;;;;17.30;14.50;;;4.80;95.20;;;;;;4840356;29;20459;-72
2023/03/06 11:16:13;;;;;;;17.17;15.48;;;4.70;96.60;;;;;;4846373;29;20449;-70
2023/03/06 11:18:42;;;;;;;16.20;14.13;;;4.60;96.40;;;;;;4851906;29;20446;-70
2023/03/06 11:24:06;;;;;;;16.52;14.75;;;4.60;95.60;;;;;;5101074;27;20369;-70
2023/03/06 11:26:43;;;;;;;17.10;15.30;;;4.60;95.60;;;;;;5097960;28;20445;-70
2023/03/06 11:29:30;;;;;;;20.85;17.30;;;4.70;96.80;;;;;;5081608;28;20409;-72
2023/03/06 11:32:02;;;;;;;19.75;17.75;;;4.60;99.90;;;;;;5083159;28;20462;-69
2023/03/06 11:34:40;;;;;;;19.73;17.63;;;4.50;99.90;;;;;;5079045;28;20437;-70
2023/03/06 11:37:12;;;;;;;20.70;18.55;;;4.30;99.90;;;;;;5076329;28;20441;-71
2023/03/06 11:39:46;;;;;;;21.30;19.00;;;4.20;99.90;;;;;;5074835;28;20435;-69
2023/03/06 11:42:19;;;;;;;20.67;17.90;;;4.20;99.90;;;;;;5064826;28;20504;-68
2023/03/06 11:44:56;;;;;;;21.98;18.45;;;4.20;99.90;;;;;;5083459;28;20413;-69
2023/03/06 11:47:25;;;;;;;20.93;16.40;;;4.20;99.90;;;;;;5084586;28;20425;-69
2023/03/06 11:50:04;;;;;;;19.25;17.23;;;4.30;99.90;;;;;;5083219;28;20642;-69
2023/03/06 11:52:41;;;;;;;17.13;15.30;;;4.30;99.90;;;;;;5060611;28;20415;-70
2023/03/06 11:55:15;;;;;;;19.20;17.20;;;4.30;99.90;;;;;;5064018;28;20662;-69
2023/03/06 11:57:50;;;;;;;18.00;16.20;;;4.30;99.90;;;;;;5070906;28;20422;-71
2023/03/06 12:00:32;;;;;;;16.55;14.85;;;4.30;98.90;;;;;;5077266;28;20430;-69
2023/03/06 12:03:21;;;;;;;18.13;15.63;;;4.40;99.40;;;;;;5085409;28;20437;-70
2023/03/06 12:05:56;;;;;;;16.58;14.90;;;4.40;97.90;;;;;;5084234;28;20429;-69
2023/03/06 12:08:38;;;;;;;17.17;15.32;;;4.30;99.90;;;;;;5087522;28;20508;-70
2023/03/06 12:11:16;;;;;;;16.70;14.70;;;4.10;99.90;;;;;;5083449;28;20439;-71
2023/03/06 12:16:34;;;;;;;17.98;15.70;;;4.10;99.90;;;;;;5083569;28;20976;-68
2023/03/06 12:19:15;;;;;;;18.00;16.10;;;4.20;99.90;;;;;;5083999;28;20437;-68
2023/03/06 12:21:55;;;;;;;18.20;15.65;;;4.30;99.90;;;;;;5059258;28;20535;-73
2023/03/06 12:24:41;;;;;;;18.73;15.32;;;4.50;99.90;;;;;;5081701;28;20426;-70
2023/03/06 12:27:19;;;;;;;16.80;15.10;;;4.60;99.90;;;;;;5094245;28;20446;-69
2023/03/06 12:29:56;;;;;;;17.13;15.43;;;4.70;99.90;;;;;;5095597;28;20444;-71
2023/03/06 12:32:35;;;;;;;16.60;14.90;;;4.70;99.90;;;;;;5091496;28;20447;-70
2023/03/06 12:35:22;;;;;;;17.27;15.55;;;4.70;99.90;;;;;;5074875;28;20439;-70
2023/03/06 12:38:03;;;;;;;15.98;14.38;;;4.70;99.00;;;;;;5072227;28;20435;-70
2023/03/06 12:40:50;;;;;;;16.63;13.38;;;4.80;98.60;;;;;;5074066;28;20435;-69
2023/03/06 12:43:44;;;;;;;13.50;12.10;;;4.80;98.20;;;;;;5069593;28;20510;-69
2023/03/06 12:46:15;;;;;;;14.70;12.93;;;4.80;96.70;;;;;;5070751;28;20910;-70
2023/03/06 12:48:45;;;;;;;13.43;11.80;;;4.70;96.80;;;;;;5084909;28;20406;-69
2023/03/06 12:51:17;;;;;;;12.40;11.20;;;4.80;96.60;;;;;;5071529;28;20442;-69
2023/03/06 12:53:45;;;;;;;13.30;12.00;;;4.80;95.40;;;;;;5076898;28;20437;-68